createdAt,value
2019-02-08T00:00:21.348Z,100883.39
2019-02-08T00:02:49.849Z,100893.62
2019-02-08T00:05:18.505Z,100894.90
2019-02-08T00:07:47.088Z,100893.95
2019-02-08T00:10:17.182Z,100892.67
2019-02-08T00:12:45.706Z,100893.54
2019-02-08T00:15:20.214Z,100892.25
2019-02-08T00:17:48.941Z,100892.25
2019-02-08T00:20:18.545Z,100884.09
2019-02-08T00:22:47.167Z,100895.36
2019-02-08T00:25:17.731Z,100900.08
2019-02-08T00:27:46.449Z,100891.51
2019-02-08T00:30:18.782Z,100890.76
2019-02-08T00:32:47.233Z,100890.72
2019-02-08T00:35:15.701Z,100899.29
2019-02-08T00:37:44.268Z,100891.80
2019-02-08T00:40:15.473Z,100909.89
2019-02-08T00:42:43.945Z,100909.89
2019-02-08T00:45:15.475Z,100917.19
2019-02-08T00:47:44.007Z,100917.59
2019-02-08T00:50:24.402Z,100922.94
2019-02-08T00:52:53.001Z,100928.61
2019-02-08T00:55:21.905Z,100928.61
2019-02-08T00:57:50.467Z,100932.38
2019-02-08T01:00:20.644Z,100941.32
2019-02-08T01:02:50.853Z,100947.86
2019-02-08T01:05:21.084Z,100947.86
2019-02-08T01:07:49.702Z,100951.92
2019-02-08T01:10:21.574Z,100951.92
2019-02-08T01:12:50.214Z,100948.12
2019-02-08T01:15:20.761Z,100948.12
2019-02-08T01:17:49.286Z,100959.75
2019-02-08T01:20:22.659Z,100957.59
2019-02-08T01:22:51.367Z,100958.01
2019-02-08T01:25:25.448Z,100963.14
2019-02-08T01:27:53.957Z,100963.14
2019-02-08T01:30:33.386Z,100959.95
2019-02-08T01:33:01.941Z,100967.03
2019-02-08T01:35:30.574Z,100967.03
2019-02-08T01:38:00.582Z,100967.78
2019-02-08T01:40:35.054Z,100969.43
2019-02-08T01:43:03.952Z,100969.43
2019-02-08T01:45:33.355Z,100968.48
2019-02-08T01:48:01.847Z,100965.75
2019-02-08T01:50:31.249Z,100963.68
2019-02-08T01:53:00.965Z,100974.20
2019-02-08T01:55:29.624Z,100974.20
2019-02-08T01:57:58.156Z,100964.27
2019-02-08T02:00:31.723Z,100971.92
2019-02-08T02:03:00.560Z,100972.46
2019-02-08T02:05:29.009Z,100970.77
2019-02-08T02:07:57.470Z,100975.78
2019-02-08T02:10:28.405Z,100984.22
2019-02-08T02:12:57.000Z,100984.22
2019-02-08T02:15:25.605Z,100987.13
2019-02-08T02:17:54.358Z,100981.98
2019-02-08T02:20:28.309Z,100984.56
2019-02-08T02:22:56.826Z,100980.30
2019-02-08T02:25:25.359Z,100986.79
2019-02-08T02:27:53.900Z,100980.38
2019-02-08T02:30:25.564Z,100981.98
2019-02-08T02:32:54.177Z,100982.94
2019-02-08T02:35:23.281Z,100985.64
2019-02-08T02:37:51.820Z,100990.90
2019-02-08T02:40:21.565Z,100992.84
2019-02-08T02:42:51.354Z,100992.84
2019-02-08T02:45:25.848Z,100995.08
2019-02-08T02:47:54.303Z,100994.67
2019-02-08T02:50:22.931Z,101000.34
2019-02-08T02:52:51.505Z,100997.03
2019-02-08T02:55:25.204Z,101003.20
2019-02-08T02:57:53.915Z,100995.20
2019-02-08T03:00:37.255Z,101010.82
2019-02-08T03:03:05.946Z,101010.48
2019-02-08T03:05:34.490Z,101015.83
2019-02-08T03:08:03.442Z,101015.45
2019-02-08T03:10:31.897Z,101012.63
2019-02-08T03:13:00.364Z,101012.34
2019-02-08T03:15:28.924Z,101016.73
2019-02-08T03:17:57.465Z,101021.13
2019-02-08T03:20:25.922Z,101020.86
2019-02-08T03:22:54.425Z,101014.10
2019-02-08T03:25:25.426Z,101006.84
2019-02-08T03:27:54.066Z,101010.37
2019-02-08T03:30:32.106Z,101014.76
2019-02-08T03:33:00.590Z,101010.56
2019-02-08T03:35:29.268Z,101012.80
2019-02-08T03:37:57.772Z,101020.55
2019-02-08T03:40:30.509Z,101024.53
2019-02-08T03:42:59.250Z,101028.00
2019-02-08T03:45:29.481Z,101025.02
2019-02-08T03:47:58.058Z,101027.09
2019-02-08T03:50:26.580Z,101028.38
2019-02-08T03:52:55.572Z,101026.23
2019-02-08T03:55:24.882Z,101028.38
2019-02-08T03:57:53.407Z,101032.24
2019-02-08T04:00:32.014Z,101030.91
2019-02-08T04:03:00.472Z,101032.53
2019-02-08T04:05:29.308Z,101038.09
2019-02-08T04:07:58.182Z,101041.08
2019-02-08T04:10:26.714Z,101047.09
2019-02-08T04:12:55.172Z,101039.79
2019-02-08T04:15:25.298Z,101049.17
2019-02-08T04:17:54.039Z,101044.44
2019-02-08T04:20:27.041Z,101044.86
2019-02-08T04:22:58.711Z,101049.17
2019-02-08T04:25:27.342Z,101049.25
2019-02-08T04:27:55.877Z,101045.47
2019-02-08T04:30:26.994Z,101054.51
2019-02-08T04:32:55.835Z,101048.42
2019-02-08T04:35:24.820Z,101051.82
2019-02-08T04:37:53.507Z,101053.36
2019-02-08T04:40:23.708Z,101048.52
2019-02-08T04:42:52.337Z,101057.39
2019-02-08T04:45:21.383Z,101050.55
2019-02-08T04:47:50.593Z,101051.42
2019-02-08T04:50:29.983Z,101049.27
2019-02-08T04:52:58.621Z,101049.80
2019-02-08T04:55:27.216Z,101050.63
2019-02-08T04:57:55.731Z,101056.14
2019-02-08T05:00:32.626Z,101060.50
2019-02-08T05:03:01.230Z,101054.86
2019-02-08T05:05:29.761Z,101059.20
2019-02-08T05:07:58.775Z,101061.37
2019-02-08T05:10:29.925Z,101060.16
2019-02-08T05:12:58.524Z,101057.70
2019-02-08T05:15:28.674Z,101057.78
2019-02-08T05:17:57.178Z,101061.02
2019-02-08T05:20:30.564Z,101064.13
2019-02-08T05:22:59.027Z,101058.69
2019-02-08T05:25:27.701Z,101066.06
2019-02-08T05:27:56.324Z,101063.16
2019-02-08T05:30:35.576Z,101057.72
2019-02-08T05:33:05.056Z,101062.59
2019-02-08T05:35:33.521Z,101062.72
2019-02-08T05:38:02.027Z,101064.46
2019-02-08T05:40:30.545Z,101063.66
2019-02-08T05:42:59.095Z,101062.08
2019-02-08T05:45:27.963Z,101062.08
2019-02-08T05:47:56.424Z,101061.29
2019-02-08T05:50:28.817Z,101069.92
2019-02-08T05:52:58.386Z,101067.84
2019-02-08T05:55:31.059Z,101072.16
2019-02-08T05:57:59.895Z,101075.22
2019-02-08T06:00:32.738Z,101071.81
2019-02-08T06:03:01.972Z,101078.70
2019-02-08T06:05:30.509Z,101079.65
2019-02-08T06:07:59.005Z,101080.14
2019-02-08T06:10:27.470Z,101077.16
2019-02-08T06:12:55.991Z,101095.20
2019-02-08T06:15:25.553Z,101079.73
2019-02-08T06:17:54.212Z,101081.05
2019-02-08T06:20:24.805Z,101082.34
2019-02-08T06:22:53.455Z,101079.77
2019-02-08T06:25:22.865Z,101083.63
2019-02-08T06:27:51.756Z,101084.91
2019-02-08T06:30:28.598Z,101083.25
2019-02-08T06:32:57.127Z,101088.39
2019-02-08T06:35:27.117Z,101093.46
2019-02-08T06:37:55.681Z,101101.93
2019-02-08T06:40:26.466Z,101104.42
2019-02-08T06:42:54.907Z,101108.24
2019-02-08T06:45:25.535Z,101109.45
2019-02-08T06:47:54.148Z,101117.17
2019-02-08T06:50:27.151Z,101124.43
2019-02-08T06:52:55.722Z,101123.56
2019-02-08T06:55:25.319Z,101121.73
2019-02-08T06:57:59.002Z,101126.88
2019-02-08T07:00:37.378Z,101132.90
2019-02-08T07:03:10.671Z,101133.31
2019-02-08T07:05:46.653Z,101133.31
2019-02-08T07:08:22.430Z,101140.28
2019-02-08T07:11:08.798Z,101134.23
2019-02-08T07:13:45.071Z,101139.78
2019-02-08T07:16:24.258Z,101146.63
2019-02-08T07:19:12.462Z,101141.03
2019-02-08T07:21:42.605Z,101149.63
2019-02-08T07:24:15.451Z,101144.81
2019-02-08T07:27:00.680Z,101151.70
2019-02-08T07:29:33.225Z,101154.69
2019-02-08T07:32:03.399Z,101152.45
2019-02-08T07:34:49.912Z,101157.59
2019-02-08T07:37:20.111Z,101160.66
2019-02-08T07:40:09.753Z,101153.14
2019-02-08T07:42:56.322Z,101164.42
2019-02-08T07:45:29.488Z,101168.07
2019-02-08T07:48:11.959Z,101164.88
2019-02-08T07:50:45.087Z,101168.47
2019-02-08T07:53:20.852Z,101165.34
2019-02-08T07:55:51.982Z,101172.84
2019-02-08T07:58:22.368Z,101173.08
2019-02-08T08:01:09.114Z,101178.50
2019-02-08T08:04:01.261Z,101172.64
2019-02-08T08:06:27.479Z,101172.95
2019-02-08T08:09:15.741Z,101169.77
2019-02-08T08:11:45.938Z,101168.29
2019-02-08T08:14:31.432Z,101169.35
2019-02-08T08:17:04.032Z,101164.31
2019-02-08T08:19:37.020Z,101165.26
2019-02-08T08:22:18.996Z,101174.08
2019-02-08T08:24:56.162Z,101173.05
2019-02-08T08:27:32.529Z,101173.46
2019-02-08T08:30:05.834Z,101165.61
2019-02-08T08:32:37.108Z,101167.61
2019-02-08T08:35:08.743Z,101175.06
2019-02-08T08:37:49.353Z,101167.96
2019-02-08T08:40:27.051Z,101175.80
2019-02-08T08:43:15.156Z,101174.28
2019-02-08T08:45:49.829Z,101168.77
2019-02-08T08:48:30.336Z,101171.88
2019-02-08T08:51:19.837Z,101169.89
2019-02-08T08:54:09.319Z,101171.28
2019-02-08T08:56:46.295Z,101166.23
2019-02-08T08:59:34.883Z,101169.41
2019-02-08T09:02:27.697Z,101161.77
2019-02-08T09:05:08.386Z,101161.95
2019-02-08T09:07:45.943Z,101165.50
2019-02-08T09:10:42.003Z,101161.80
2019-02-08T09:13:22.676Z,101158.34
2019-02-08T09:16:09.388Z,101163.19
2019-02-08T09:18:49.572Z,101160.72
2019-02-08T09:21:32.929Z,101159.14
2019-02-08T09:24:33.565Z,101157.88
2019-02-08T09:27:10.964Z,101161.40
2019-02-08T09:29:42.762Z,101152.47
2019-02-08T09:32:26.237Z,101148.67
2019-02-08T09:35:31.034Z,101148.83
2019-02-08T09:38:08.410Z,101152.03
2019-02-08T09:40:48.645Z,101149.55
2019-02-08T09:43:55.058Z,101157.94
2019-02-08T09:46:35.397Z,101159.77
2019-02-08T09:49:09.679Z,101159.06
2019-02-08T09:51:47.413Z,101155.78
2019-02-08T09:54:23.067Z,101155.55
2019-02-08T09:57:09.458Z,101157.94
2019-02-08T10:00:05.079Z,101149.08
2019-02-08T10:02:45.597Z,101140.20
2019-02-08T10:05:31.186Z,101133.54
2019-02-08T10:08:21.925Z,101140.66
2019-02-08T10:11:08.884Z,101146.45
2019-02-08T10:14:15.478Z,101153.13
2019-02-08T10:17:13.618Z,101150.27
2019-02-08T10:20:00.221Z,101151.73
2019-02-08T10:22:47.051Z,101149.30
2019-02-08T10:25:47.224Z,101156.42
2019-02-08T10:28:38.160Z,101154.44
2019-02-08T10:31:28.980Z,101146.40
2019-02-08T10:34:06.413Z,101138.87
2019-02-08T10:36:46.834Z,101143.77
2019-02-08T10:39:37.894Z,101142.62
2019-02-08T10:42:25.924Z,101152.26
2019-02-08T10:45:21.769Z,101147.67
2019-02-08T10:48:11.399Z,101147.44
2019-02-08T10:50:48.764Z,101146.71
2019-02-08T10:53:39.625Z,101153.26
2019-02-08T10:56:15.015Z,101154.55
2019-02-08T10:58:56.137Z,101150.61
2019-02-08T11:01:59.415Z,101145.87
2019-02-08T11:04:52.947Z,101149.80
2019-02-08T11:07:41.305Z,101147.61
2019-02-08T11:10:30.292Z,101135.97
2019-02-08T11:13:35.533Z,101136.81
2019-02-08T11:16:32.826Z,101137.23
2019-02-08T11:19:19.535Z,101138.11
2019-02-08T11:21:49.525Z,101133.72
2019-02-08T11:24:20.423Z,101141.54
2019-02-08T11:26:49.093Z,101133.30
2019-02-08T11:29:17.558Z,101124.30
2019-02-08T11:31:45.999Z,101123.95
2019-02-08T11:34:14.508Z,101125.23
2019-02-08T11:36:42.954Z,101121.73
2019-02-08T11:39:13.644Z,101121.23
2019-02-08T11:41:42.788Z,101118.26
2019-02-08T11:44:11.315Z,101112.69
2019-02-08T11:46:39.791Z,101110.09
2019-02-08T11:49:08.640Z,101115.75
2019-02-08T11:51:37.111Z,101098.02
2019-02-08T11:54:06.100Z,101095.43
2019-02-08T11:56:34.590Z,101101.89
2019-02-08T11:59:03.112Z,101102.39
2019-02-08T12:01:33.201Z,101098.64
2019-02-08T12:04:01.728Z,101102.61
2019-02-08T12:06:30.233Z,101102.68
2019-02-08T12:08:58.685Z,101100.52
2019-02-08T12:11:27.165Z,101099.59
2019-02-08T12:13:55.689Z,101100.89
2019-02-08T12:16:24.785Z,101107.33
2019-02-08T12:18:53.289Z,101098.67
2019-02-08T12:21:21.818Z,101097.80
2019-02-08T12:23:50.335Z,101095.56
2019-02-08T12:26:18.838Z,101098.07
2019-02-08T12:28:47.292Z,101095.80
2019-02-08T12:31:15.796Z,101100.52
2019-02-08T12:33:45.630Z,101094.37
2019-02-08T12:36:14.227Z,101096.03
2019-02-08T12:38:42.789Z,101084.37
2019-02-08T12:41:12.928Z,101086.95
2019-02-08T12:43:41.648Z,101085.16
2019-02-08T12:46:10.189Z,101079.51
2019-02-08T12:48:38.662Z,101073.97
2019-02-08T12:51:07.193Z,101064.92
2019-02-08T12:53:35.654Z,101061.96
2019-02-08T12:56:05.001Z,101056.37
2019-02-08T12:58:33.528Z,101052.56
2019-02-08T13:01:02.063Z,101060.37
2019-02-08T13:03:30.703Z,101055.26
2019-02-08T13:05:59.154Z,101059.14
2019-02-08T13:08:27.744Z,101056.55
2019-02-08T13:10:56.318Z,101052.70
2019-02-08T13:13:24.782Z,101051.83
2019-02-08T13:15:53.233Z,101059.16
2019-02-08T13:18:21.715Z,101056.20
2019-02-08T13:20:50.169Z,101047.63
2019-02-08T13:23:18.633Z,101046.73
2019-02-08T13:25:47.122Z,101051.09
2019-02-08T13:28:15.604Z,101044.62
2019-02-08T13:30:44.128Z,101042.95
2019-02-08T13:33:12.667Z,101041.69
2019-02-08T13:35:41.124Z,101043.53
2019-02-08T13:38:09.574Z,101041.45
2019-02-08T13:40:38.119Z,101037.20
2019-02-08T13:43:06.572Z,101040.77
2019-02-08T13:45:35.024Z,101034.32
2019-02-08T13:48:03.652Z,101046.07
2019-02-08T13:50:33.994Z,101040.91
2019-02-08T13:53:02.441Z,101037.08
2019-02-08T13:55:31.112Z,101037.60
2019-02-08T13:57:59.542Z,101033.34
2019-02-08T14:00:31.155Z,101039.39
2019-02-08T14:02:59.717Z,101032.10
2019-02-08T14:05:28.226Z,101040.29
2019-02-08T14:07:56.716Z,101042.83
2019-02-08T14:10:25.516Z,101039.31
2019-02-08T14:12:53.972Z,101034.99
2019-02-08T14:15:24.633Z,101033.22
2019-02-08T14:17:53.139Z,101027.98
2019-02-08T14:20:24.489Z,101025.27
2019-02-08T14:22:53.194Z,101022.98
2019-02-08T14:25:22.532Z,101014.72
2019-02-08T14:27:51.095Z,101012.06
2019-02-08T14:30:34.485Z,101013.36
2019-02-08T14:33:03.052Z,101011.21
2019-02-08T14:35:31.755Z,101013.78
2019-02-08T14:38:01.928Z,101009.84
2019-02-08T14:40:32.019Z,101002.06
2019-02-08T14:43:00.553Z,101004.66
2019-02-08T14:45:29.220Z,101000.30
2019-02-08T14:47:57.678Z,100998.13
2019-02-08T14:50:30.742Z,101000.30
2019-02-08T14:52:59.661Z,100999.00
2019-02-08T14:55:28.260Z,100987.78
2019-02-08T14:58:01.722Z,100987.36
2019-02-08T15:00:30.204Z,100983.48
2019-02-08T15:02:58.669Z,100986.94
2019-02-08T15:05:27.120Z,100974.85
2019-02-08T15:07:55.637Z,100974.41
2019-02-08T15:10:33.286Z,100979.11
2019-02-08T15:13:02.004Z,100983.41
2019-02-08T15:15:30.512Z,100972.14
2019-02-08T15:17:59.040Z,100977.31
2019-02-08T15:20:30.363Z,100966.10
2019-02-08T15:22:58.897Z,100971.77
2019-02-08T15:25:27.523Z,100967.47
2019-02-08T15:27:56.135Z,100964.45
2019-02-08T15:30:27.313Z,100965.75
2019-02-08T15:32:55.838Z,100961.42
2019-02-08T15:35:26.474Z,100967.89
2019-02-08T15:37:55.001Z,100967.47
2019-02-08T15:40:41.288Z,100958.78
2019-02-08T15:43:10.888Z,100954.89
2019-02-08T15:45:40.533Z,100959.09
2019-02-08T15:48:09.086Z,100956.00
2019-02-08T15:50:37.624Z,100946.88
2019-02-08T15:53:06.091Z,100952.05
2019-02-08T15:55:37.430Z,100954.64
2019-02-08T15:58:06.070Z,100953.34
2019-02-08T16:00:34.592Z,100945.16
2019-02-08T16:03:03.175Z,100942.13
2019-02-08T16:05:32.225Z,100941.27
2019-02-08T16:08:00.674Z,100946.44
2019-02-08T16:10:29.243Z,100936.91
2019-02-08T16:12:57.699Z,100939.92
2019-02-08T16:15:30.466Z,100942.06
2019-02-08T16:17:58.961Z,100941.22
2019-02-08T16:20:30.368Z,100937.78
2019-02-08T16:22:59.788Z,100934.80
2019-02-08T16:25:30.111Z,100940.36
2019-02-08T16:27:58.653Z,100935.62
2019-02-08T16:30:34.864Z,100936.47
2019-02-08T16:33:03.503Z,100938.19
2019-02-08T16:35:31.958Z,100934.70
2019-02-08T16:38:00.485Z,100932.11
2019-02-08T16:40:30.518Z,100925.63
2019-02-08T16:42:59.435Z,100924.76
2019-02-08T16:45:32.793Z,100919.59
2019-02-08T16:48:02.240Z,100926.44
2019-02-08T16:50:32.427Z,100931.22
2019-02-08T16:53:00.976Z,100922.17
2019-02-08T16:55:29.546Z,100917.39
2019-02-08T16:57:58.023Z,100916.52
2019-02-08T17:00:37.129Z,100909.19
2019-02-08T17:03:08.288Z,100903.59
2019-02-08T17:05:36.976Z,100904.81
2019-02-08T17:08:05.561Z,100893.19
2019-02-08T17:10:34.096Z,100894.90
2019-02-08T17:13:02.539Z,100888.86
2019-02-08T17:15:32.570Z,100882.77
2019-02-08T17:18:02.142Z,100893.11
2019-02-08T17:20:33.255Z,100883.21
2019-02-08T17:23:01.926Z,100883.64
2019-02-08T17:25:30.645Z,100877.17
2019-02-08T17:28:00.703Z,100873.72
2019-02-08T17:30:29.265Z,100869.84
2019-02-08T17:32:57.802Z,100872.00
2019-02-08T17:35:29.287Z,100867.20
2019-02-08T17:37:58.068Z,100871.56
2019-02-08T17:40:41.120Z,100869.34
2019-02-08T17:43:09.686Z,100860.25
2019-02-08T17:45:38.135Z,100855.92
2019-02-08T17:48:09.261Z,100850.27
2019-02-08T17:50:37.934Z,100853.72
2019-02-08T17:53:06.398Z,100836.06
2019-02-08T17:55:34.985Z,100846.41
2019-02-08T17:58:04.047Z,100845.11
2019-02-08T18:00:49.186Z,100830.08
2019-02-08T18:03:17.687Z,100831.37
2019-02-08T18:05:46.280Z,100824.91
2019-02-08T18:08:14.859Z,100824.91
2019-02-08T18:10:45.355Z,100826.14
2019-02-08T18:13:14.300Z,100825.28
2019-02-08T18:15:42.822Z,100827.00
2019-02-08T18:18:13.966Z,100839.50
2019-02-08T18:20:48.524Z,100835.62
2019-02-08T18:23:17.028Z,100832.19
2019-02-08T18:25:45.553Z,100825.72
2019-02-08T18:28:14.011Z,100823.52
2019-02-08T18:30:42.498Z,100814.45
2019-02-08T18:33:10.953Z,100812.66
2019-02-08T18:35:39.407Z,100817.36
2019-02-08T18:38:07.976Z,100818.12
2019-02-08T18:40:36.500Z,100817.63
2019-02-08T18:43:05.418Z,100806.80
2019-02-08T18:45:37.721Z,100809.80
2019-02-08T18:48:06.931Z,100808.50
2019-02-08T18:50:44.332Z,100802.42
2019-02-08T18:53:12.785Z,100801.55
2019-02-08T18:55:41.248Z,100800.63
2019-02-08T18:58:09.784Z,100799.34
2019-02-08T19:00:46.609Z,100807.52
2019-02-08T19:03:15.092Z,100795.03
2019-02-08T19:05:43.626Z,100802.36
2019-02-08T19:08:12.146Z,100797.61
2019-02-08T19:10:40.713Z,100804.52
2019-02-08T19:13:09.316Z,100795.47
2019-02-08T19:15:37.839Z,100786.83
2019-02-08T19:18:06.569Z,100795.41
2019-02-08T19:20:35.055Z,100778.06
2019-02-08T19:23:05.691Z,100774.17
2019-02-08T19:25:39.717Z,100770.22
2019-02-08T19:28:09.009Z,100764.14
2019-02-08T19:30:41.646Z,100760.19
2019-02-08T19:33:10.220Z,100763.16
2019-02-08T19:35:38.758Z,100751.05
2019-02-08T19:38:08.309Z,100745.39
2019-02-08T19:40:39.006Z,100752.25
2019-02-08T19:43:07.454Z,100737.55
2019-02-08T19:45:35.963Z,100737.92
2019-02-08T19:48:05.695Z,100733.55
2019-02-08T19:50:41.948Z,100732.14
2019-02-08T19:53:10.517Z,100723.03
2019-02-08T19:55:39.403Z,100717.77
2019-02-08T19:58:08.976Z,100705.20
2019-02-08T20:00:39.518Z,100706.88
2019-02-08T20:03:08.702Z,100711.11
2019-02-08T20:05:37.238Z,100702.88
2019-02-08T20:08:06.470Z,100703.72
2019-02-08T20:10:47.120Z,100713.55
2019-02-08T20:13:15.789Z,100710.97
2019-02-08T20:15:44.306Z,100709.01
2019-02-08T20:18:13.555Z,100704.77
2019-02-08T20:20:42.063Z,100692.22
2019-02-08T20:23:10.632Z,100697.34
2019-02-08T20:25:39.103Z,100685.22
2019-02-08T20:28:08.193Z,100686.89
2019-02-08T20:30:36.809Z,100679.56
2019-02-08T20:33:05.899Z,100673.48
2019-02-08T20:35:34.478Z,100668.30
2019-02-08T20:38:03.079Z,100664.80
2019-02-08T20:40:43.433Z,100652.70
2019-02-08T20:43:11.893Z,100656.98
2019-02-08T20:45:40.360Z,100660.38
2019-02-08T20:48:14.947Z,100653.48
2019-02-08T20:50:43.431Z,100646.98
2019-02-08T20:53:11.935Z,100650.43
2019-02-08T20:55:40.439Z,100636.66
2019-02-08T20:58:10.949Z,100638.86
2019-02-08T21:00:42.401Z,100637.15
2019-02-08T21:03:12.741Z,100639.36
2019-02-08T21:05:42.328Z,100637.22
2019-02-08T21:08:11.923Z,100643.77
2019-02-08T21:10:40.484Z,100632.23
2019-02-08T21:13:10.376Z,100630.95
2019-02-08T21:15:38.908Z,100628.89
2019-02-08T21:18:08.231Z,100623.32
2019-02-08T21:20:37.414Z,100613.89
2019-02-08T21:23:06.512Z,100618.63
2019-02-08T21:25:39.525Z,100607.88
2019-02-08T21:28:08.285Z,100609.22
2019-02-08T21:30:36.823Z,100602.78
2019-02-08T21:33:07.356Z,100597.17
2019-02-08T21:35:35.876Z,100596.75
2019-02-08T21:38:05.344Z,100595.02
2019-02-08T21:40:33.887Z,100595.41
2019-02-08T21:43:02.409Z,100589.80
2019-02-08T21:45:42.369Z,100579.41
2019-02-08T21:48:12.066Z,100578.92
2019-02-08T21:50:40.577Z,100576.17
2019-02-08T21:53:09.089Z,100578.27
2019-02-08T21:55:37.615Z,100579.44
2019-02-08T21:58:06.316Z,100569.90
2019-02-08T22:00:37.552Z,100558.22
2019-02-08T22:03:07.043Z,100555.52
2019-02-08T22:05:38.673Z,100556.32
2019-02-08T22:08:07.212Z,100550.19
2019-02-08T22:10:35.675Z,100544.97
2019-02-08T22:13:04.662Z,100543.18
2019-02-08T22:15:43.971Z,100532.37
2019-02-08T22:18:12.422Z,100533.59
2019-02-08T22:20:40.957Z,100523.16
2019-02-08T22:23:09.710Z,100527.88
2019-02-08T22:25:38.152Z,100526.05
2019-02-08T22:28:06.949Z,100514.87
2019-02-08T22:30:35.632Z,100507.11
2019-02-08T22:33:08.815Z,100513.14
2019-02-08T22:35:37.329Z,100511.00
2019-02-08T22:38:08.766Z,100513.20
2019-02-08T22:40:37.246Z,100501.17
2019-02-08T22:43:06.349Z,100487.41
2019-02-08T22:45:36.791Z,100498.22
2019-02-08T22:48:05.897Z,100491.82
2019-02-08T22:50:34.342Z,100495.27
2019-02-08T22:53:02.947Z,100481.08
2019-02-08T22:55:35.755Z,100474.67
2019-02-08T22:58:05.740Z,100478.98
2019-02-08T23:00:38.592Z,100467.81
2019-02-08T23:03:10.694Z,100475.60
2019-02-08T23:05:45.350Z,100470.00
2019-02-08T23:08:10.374Z,100459.26
2019-02-08T23:10:38.887Z,100460.13
2019-02-08T23:13:08.974Z,100455.88
2019-02-08T23:15:37.645Z,100443.79
2019-02-08T23:18:09.003Z,100442.97
2019-02-08T23:20:37.896Z,100438.25
2019-02-08T23:23:07.127Z,100427.49
2019-02-08T23:25:35.641Z,100424.91
2019-02-08T23:28:04.366Z,100419.33
2019-02-08T23:30:32.858Z,100418.03
2019-02-08T23:33:01.578Z,100420.19
2019-02-08T23:35:30.106Z,100423.73
2019-02-08T23:37:58.603Z,100413.00
2019-02-08T23:40:27.062Z,100401.86
2019-02-08T23:42:55.509Z,100413.09
2019-02-08T23:45:24.063Z,100406.23
2019-02-08T23:47:52.534Z,100406.70
2019-02-08T23:50:22.322Z,100399.39
2019-02-08T23:52:50.906Z,100399.87
2019-02-08T23:55:21.087Z,100399.07
2019-02-08T23:57:50.938Z,100398.63
